Time;durP1;ratioP1;P1;durP2;ratioP2;P2;SDS_P1;SDS_P2;PMS_P1;PMS_P2;Temp;Humidity;BMP_temperature;BMP_pressure;BME280_temperature;BME280_humidity;BME280_pressure;Samples;Min_cycle;Max_cycle;Signal;HPM_P1;HPM_P2
2023/06/20 00:00:41;;;;;;;13.18;7.70;;;;;;;20.25;100.00;101159.13;5032467;28;20060;-48
2023/06/20 00:03:06;;;;;;;10.25;7.18;;;;;;;20.21;100.00;101158.78;5043343;28;20059;-47
2023/06/20 00:05:32;;;;;;;9.80;7.13;;;;;;;20.16;100.00;101148.56;5051038;28;20037;-46
2023/06/20 00:07:57;;;;;;;10.43;7.40;;;;;;;20.20;100.00;101151.66;5044361;28;20112;-50
2023/06/20 00:10:23;;;;;;;11.98;7.95;;;;;;;20.22;100.00;101148.69;5031783;28;20049;-52
2023/06/20 00:12:48;;;;;;;15.27;8.15;;;;;;;20.15;100.00;101148.81;5031838;28;20424;-49
2023/06/20 00:15:14;;;;;;;11.32;7.88;;;;;;;20.19;100.00;101149.97;5030556;28;20450;-48
2023/06/20 00:17:39;;;;;;;15.02;8.57;;;;;;;20.21;100.00;101156.06;5030071;28;20365;-47
2023/06/20 00:20:09;;;;;;;15.57;8.70;;;;;;;20.24;100.00;101158.31;5034502;28;20057;-51
2023/06/20 00:22:35;;;;;;;16.50;8.45;;;;;;;20.21;100.00;101147.84;5050332;28;20372;-49
2023/06/20 00:25:06;;;;;;;12.10;7.90;;;;;;;20.25;100.00;101149.06;5051329;28;20031;-48
2023/06/20 00:27:32;;;;;;;14.35;8.25;;;;;;;20.22;100.00;101141.34;5033029;28;20502;-50
2023/06/20 00:29:57;;;;;;;13.30;8.27;;;;;;;20.21;100.00;101147.84;5031770;28;20022;-50
2023/06/20 00:32:22;;;;;;;11.15;8.02;;;;;;;20.20;100.00;101139.91;5029129;28;20030;-48
2023/06/20 00:34:48;;;;;;;13.60;8.57;;;;;;;20.20;100.00;101138.00;5044249;28;20424;-51
2023/06/20 00:37:15;;;;;;;14.32;8.60;;;;;;;20.18;100.00;101140.13;5048559;28;20029;-50
2023/06/20 00:39:40;;;;;;;14.03;8.30;;;;;;;20.13;100.00;101129.09;5030858;28;20104;-49
2023/06/20 00:42:19;;;;;;;12.32;8.57;;;;;;;20.11;100.00;101132.03;5028435;28;20112;-51
2023/06/20 00:44:45;;;;;;;14.07;8.18;;;;;;;20.09;100.00;101138.81;5032894;28;20035;-47
2023/06/20 00:47:11;;;;;;;13.77;8.93;;;;;;;20.11;100.00;101126.56;5030090;28;20187;-48
2023/06/20 00:49:36;;;;;;;13.38;8.77;;;;;;;20.09;100.00;101127.88;5028972;28;20493;-48
2023/06/20 00:52:02;;;;;;;13.73;8.90;;;;;;;20.07;100.00;101124.59;5039348;28;20454;-48
2023/06/20 00:54:29;;;;;;;13.63;9.25;;;;;;;20.07;100.00;101124.59;5034471;28;20487;-51
2023/06/20 00:56:54;;;;;;;15.00;9.32;;;;;;;20.04;100.00;101120.44;5041460;28;20060;-50
2023/06/20 00:59:19;;;;;;;15.27;9.63;;;;;;;20.03;100.00;101120.66;5032719;28;20032;-49
2023/06/20 01:01:46;;;;;;;14.07;8.88;;;;;;;19.98;100.00;101115.06;5050404;28;20044;-49
2023/06/20 01:04:12;;;;;;;14.02;9.02;;;;;;;19.95;100.00;101116.38;5048879;28;20036;-47
2023/06/20 01:06:44;;;;;;;16.90;8.95;;;;;;;19.92;100.00;101111.41;5032724;28;20017;-47
2023/06/20 01:09:31;;;;;;;15.90;8.95;;;;;;;19.90;100.00;101113.53;5037610;28;20029;-50
2023/06/20 01:12:03;;;;;;;19.85;8.77;;;;;;;19.83;100.00;101113.66;5029145;28;20072;-48
2023/06/20 01:14:44;;;;;;;11.95;8.35;;;;;;;19.87;100.00;101114.00;5029203;28;20448;-50
2023/06/20 01:17:20;;;;;;;13.18;8.45;;;;;;;19.87;100.00;101114.81;5040946;28;20028;-47
2023/06/20 01:19:56;;;;;;;11.93;7.70;;;;;;;19.91;100.00;101116.03;5048869;28;20021;-47
2023/06/20 01:22:48;;;;;;;11.00;8.55;;;;;;;19.99;100.00;101116.75;5042854;28;20074;-47
2023/06/20 01:25:46;;;;;;;11.25;8.18;;;;;;;19.99;100.00;101112.13;5038002;28;20037;-48
2023/06/20 01:28:23;;;;;;;10.20;8.10;;;;;;;20.02;100.00;101105.34;5048046;28;20071;-48
2023/06/20 01:31:15;;;;;;;12.70;7.93;;;;;;;19.98;100.00;101109.59;5039378;28;20113;-50
2023/06/20 01:33:44;;;;;;;15.13;7.75;;;;;;;19.95;100.00;101100.81;5031814;28;20132;-48
2023/06/20 01:36:09;;;;;;;13.45;7.50;;;;;;;19.97;100.00;101105.22;5048653;28;20502;-51
2023/06/20 01:38:37;;;;;;;14.80;8.40;;;;;;;19.95;100.00;101098.06;5045557;28;20040;-51
2023/06/20 01:41:04;;;;;;;11.98;7.18;;;;;;;19.92;100.00;101106.75;5029155;28;20029;-49
2023/06/20 01:43:30;;;;;;;12.18;7.55;;;;;;;19.90;100.00;101106.16;5038162;28;20029;-51
2023/06/20 01:45:56;;;;;;;11.57;7.50;;;;;;;19.89;100.00;101100.94;5027155;28;20082;-48
2023/06/20 01:48:23;;;;;;;10.60;7.20;;;;;;;19.87;100.00;101103.06;5035585;28;20044;-48
2023/06/20 01:50:50;;;;;;;13.63;7.23;;;;;;;19.88;100.00;101100.13;5043548;28;20504;-46
2023/06/20 01:53:16;;;;;;;12.63;7.47;;;;;;;19.84;100.00;101098.91;5032033;28;20088;-48
2023/06/20 01:55:42;;;;;;;11.10;7.32;;;;;;;19.87;100.00;101095.72;5038286;28;20476;-48
2023/06/20 01:58:07;;;;;;;12.25;7.18;;;;;;;19.85;100.00;101099.75;5027563;28;20033;-48
2023/06/20 02:00:34;;;;;;;11.00;6.50;;;;;;;19.87;100.00;101101.16;5040828;28;20063;-45
2023/06/20 02:03:00;;;;;;;10.60;7.47;;;;;;;19.88;100.00;101094.66;5032800;28;20090;-51
2023/06/20 02:05:28;;;;;;;11.05;7.45;;;;;;;19.89;100.00;101090.03;5048207;28;20537;-45
2023/06/20 02:07:54;;;;;;;;;;;;;;;19.88;100.00;101091.94;5030928;28;20079;-46
2023/06/20 02:10:21;;;;;;;12.40;8.20;;;;;;;19.87;100.00;101087.50;5046233;28;20371;-48
2023/06/20 02:12:48;;;;;;;11.75;8.15;;;;;;;19.82;100.00;101090.13;5030591;28;20299;-47
2023/06/20 02:15:14;;;;;;;10.00;7.53;;;;;;;19.83;100.00;101091.81;5037387;28;20522;-47
2023/06/20 02:17:40;;;;;;;12.18;7.93;;;;;;;19.82;100.00;101083.84;5029216;28;20121;-47
2023/06/20 02:20:06;;;;;;;14.00;7.65;;;;;;;19.84;100.00;101090.72;5033403;28;20108;-50
2023/06/20 02:22:32;;;;;;;14.93;7.88;;;;;;;19.84;100.00;101095.38;5046730;28;20469;-49
2023/06/20 02:25:04;;;;;;;13.32;7.60;;;;;;;19.84;100.00;101093.47;5049968;28;20037;-51
2023/06/20 02:27:30;;;;;;;11.82;7.65;;;;;;;19.84;100.00;101093.47;5034623;28;20112;-49
2023/06/20 02:29:56;;;;;;;12.70;7.78;;;;;;;19.81;100.00;101083.00;5050947;28;20431;-47
2023/06/20 02:32:23;;;;;;;10.45;7.10;;;;;;;19.79;100.00;101071.47;5037452;28;20080;-50
2023/06/20 02:34:49;;;;;;;10.07;7.25;;;;;;;19.83;100.00;101083.63;5031670;28;20068;-48
2023/06/20 02:37:15;;;;;;;10.98;7.72;;;;;;;19.81;100.00;101072.09;5034913;28;20025;-50
2023/06/20 02:39:40;;;;;;;11.43;7.90;;;;;;;19.81;100.00;101076.72;5046146;28;20026;-50
2023/06/20 02:42:05;;;;;;;12.23;7.10;;;;;;;19.80;100.00;101075.91;5033015;28;20034;-50
2023/06/20 02:44:31;;;;;;;11.60;7.72;;;;;;;19.83;100.00;101072.69;5031727;28;20320;-47
2023/06/20 02:47:13;;;;;;;12.73;8.10;;;;;;;19.87;100.00;101064.84;5032810;28;20024;-46
2023/06/20 02:49:44;;;;;;;12.93;7.70;;;;;;;19.85;100.00;101056.91;5033076;28;20099;-47
2023/06/20 02:52:30;;;;;;;13.77;7.88;;;;;;;19.85;100.00;101050.59;5036753;28;20450;-45
2023/06/20 02:55:02;;;;;;;11.68;7.65;;;;;;;19.83;100.00;101053.56;5031662;28;20071;-49
2023/06/20 02:57:29;;;;;;;12.40;7.57;;;;;;;19.86;100.00;101046.81;5031358;28;20116;-48
2023/06/20 02:59:59;;;;;;;13.07;7.68;;;;;;;19.84;100.00;101052.47;5032765;28;20022;-49
2023/06/20 03:02:28;;;;;;;13.80;8.20;;;;;;;19.84;100.00;101055.22;5015020;28;20091;-47
2023/06/20 03:04:57;;;;;;;12.07;7.45;;;;;;;19.82;100.00;101057.34;5040387;28;20499;-47
2023/06/20 03:07:23;;;;;;;11.13;7.85;;;;;;;19.68;100.00;101066.84;5047776;28;20076;-48
2023/06/20 03:09:49;;;;;;;11.40;7.97;;;;;;;19.70;100.00;101053.81;5051617;28;20021;-48
2023/06/20 03:12:14;;;;;;;14.63;7.97;;;;;;;19.75;100.00;101062.13;5045497;28;20029;-47
2023/06/20 03:14:40;;;;;;;11.30;8.10;;;;;;;19.71;100.00;101061.75;5041141;28;20506;-46
2023/06/20 03:17:06;;;;;;;12.40;8.52;;;;;;;19.74;100.00;101060.44;5039432;28;20094;-49
2023/06/20 03:19:32;;;;;;;13.32;8.40;;;;;;;19.76;100.00;101060.22;5041236;28;20029;-48
2023/06/20 03:21:58;;;;;;;13.83;8.43;;;;;;;19.73;100.00;101069.72;5017421;28;20029;-50
2023/06/20 03:24:23;;;;;;;10.80;8.00;;;;;;;19.74;100.00;101065.91;5016848;28;20485;-52
2023/06/20 03:26:49;;;;;;;12.63;8.20;;;;;;;19.77;100.00;101065.41;5035493;28;20033;-47
2023/06/20 03:29:14;;;;;;;14.80;8.05;;;;;;;19.71;100.00;101066.38;5050385;28;20549;-47
2023/06/20 03:31:39;;;;;;;12.63;8.75;;;;;;;19.74;100.00;101063.16;5049539;28;20049;-50
2023/06/20 03:34:05;;;;;;;15.30;8.15;;;;;;;19.71;100.00;101066.38;5048145;28;20025;-48
2023/06/20 03:36:30;;;;;;;12.68;8.30;;;;;;;19.77;100.00;101054.50;5041719;28;20494;-48
2023/06/20 03:38:55;;;;;;;12.82;8.32;;;;;;;19.74;100.00;101055.81;5052156;28;20110;-47
2023/06/20 03:41:21;;;;;;;10.25;7.65;;;;;;;19.73;100.00;101058.78;5037608;28;20041;-47
2023/06/20 03:43:46;;;;;;;12.48;8.43;;;;;;;19.68;100.00;101066.84;5042559;28;20040;-47
2023/06/20 03:46:11;;;;;;;13.50;8.57;;;;;;;19.69;100.00;101071.25;5047970;28;20038;-48
2023/06/20 03:48:37;;;;;;;16.70;7.90;;;;;;;19.65;100.00;101067.31;5045987;28;20514;-47
2023/06/20 03:51:04;;;;;;;18.25;8.15;;;;;;;19.73;100.00;101069.72;5032629;28;20521;-46
2023/06/20 03:53:29;;;;;;;12.43;7.90;;;;;;;19.72;100.00;101062.56;5039898;28;20130;-46
2023/06/20 03:55:55;;;;;;;13.82;7.65;;;;;;;19.74;100.00;101065.91;5049750;28;20338;-47
2023/06/20 03:58:20;;;;;;;10.50;7.82;;;;;;;19.76;100.00;101065.69;5031614;28;20033;-47
2023/06/20 04:00:46;;;;;;;14.05;7.70;;;;;;;19.74;100.00;101071.38;5039892;28;20125;-47
2023/06/20 04:03:11;;;;;;;14.93;8.95;;;;;;;19.66;100.00;101067.09;5049799;28;20508;-48
2023/06/20 04:05:37;;;;;;;12.10;8.57;;;;;;;19.63;100.00;101069.44;5049737;28;20076;-47
2023/06/20 04:08:03;;;;;;;12.10;8.55;;;;;;;19.62;100.00;101067.78;5050715;28;20032;-47
2023/06/20 04:10:28;;;;;;;10.68;7.57;;;;;;;19.68;100.00;101075.06;5042673;28;20534;-47
2023/06/20 04:12:53;;;;;;;11.57;7.93;;;;;;;19.73;100.00;101069.72;5029800;28;20507;-47
2023/06/20 04:15:19;;;;;;;11.65;7.97;;;;;;;19.78;100.00;101064.38;5034672;28;20067;-48
2023/06/20 04:17:45;;;;;;;12.75;8.07;;;;;;;19.80;100.00;101064.97;5038808;28;20061;-48
2023/06/20 04:20:13;;;;;;;13.50;7.70;;;;;;;19.79;100.00;101057.84;5026545;28;20021;-48
2023/06/20 04:22:44;;;;;;;10.55;7.72;;;;;;;19.76;100.00;101062.94;5029860;28;20034;-48
2023/06/20 04:25:14;;;;;;;11.55;8.18;;;;;;;19.76;100.00;101055.59;5028547;28;20030;-48
2023/06/20 04:27:39;;;;;;;12.60;8.13;;;;;;;19.81;100.00;101060.34;5017917;28;20036;-46
2023/06/20 04:30:05;;;;;;;19.77;8.05;;;;;;;19.82;100.00;101062.81;5038664;28;20099;-48
2023/06/20 04:32:31;;;;;;;11.70;7.53;;;;;;;19.84;100.00;101049.75;5042968;28;20445;-47
2023/06/20 04:34:57;;;;;;;16.02;7.63;;;;;;;19.83;100.00;101063.66;5039641;28;20562;-47
2023/06/20 04:37:22;;;;;;;10.48;8.07;;;;;;;19.89;100.00;101057.25;5040390;28;20115;-46
2023/06/20 04:39:47;;;;;;;13.00;7.65;;;;;;;19.90;100.00;101046.06;5042324;28;20506;-50
2023/06/20 04:42:13;;;;;;;14.30;7.88;;;;;;;19.93;100.00;101047.47;5042912;28;20116;-47
2023/06/20 04:44:38;;;;;;;17.80;7.88;;;;;;;19.95;100.00;101043.44;5037435;28;20060;-48
2023/06/20 04:47:03;;;;;;;15.48;8.25;;;;;;;19.98;100.00;101046.78;5033589;28;20432;-48
2023/06/20 04:49:29;;;;;;;12.52;8.13;;;;;;;20.00;100.00;101030.97;5030329;28;20613;-48
2023/06/20 04:51:57;;;;;;;12.65;8.00;;;;;;;20.03;100.00;101042.25;5028999;28;20030;-50
2023/06/20 04:54:23;;;;;;;14.00;7.63;;;;;;;20.05;100.00;101036.56;5028885;28;20040;-46
2023/06/20 04:56:48;;;;;;;14.02;7.78;;;;;;;20.13;100.00;101028.81;5031600;28;20610;-46
2023/06/20 04:59:13;;;;;;;12.02;8.32;;;;;;;20.14;100.00;101032.38;5032313;28;20021;-51
2023/06/20 05:01:39;;;;;;;14.50;8.45;;;;;;;20.18;100.00;101028.91;5029287;28;20041;-48
2023/06/20 05:04:04;;;;;;;12.40;8.90;;;;;;;20.16;100.00;101024.75;5048478;28;20107;-47
2023/06/20 05:06:30;;;;;;;13.05;8.60;;;;;;;20.22;100.00;101028.44;5049043;28;20043;-47
2023/06/20 05:08:55;;;;;;;12.82;8.55;;;;;;;20.29;100.00;101034.59;5050456;28;20084;-46
2023/06/20 05:11:20;;;;;;;11.82;8.40;;;;;;;20.33;100.00;101025.69;5027723;28;20024;-47
2023/06/20 05:13:46;;;;;;;13.68;8.18;;;;;;;20.34;100.00;101013.66;5036891;28;20412;-46
2023/06/20 05:16:11;;;;;;;12.50;8.85;;;;;;;20.38;100.00;101017.59;5048901;28;20031;-48
2023/06/20 05:18:36;;;;;;;12.20;8.45;;;;;;;20.42;100.00;101017.09;5037423;28;20029;-49
2023/06/20 05:21:02;;;;;;;11.93;8.93;;;;;;;20.43;100.00;101027.75;5032890;28;20115;-49
2023/06/20 05:23:27;;;;;;;12.25;8.32;;;;;;;20.42;100.00;101036.22;5039408;28;20407;-50
2023/06/20 05:25:53;;;;;;;11.15;7.53;;;;;;;20.46;100.00;101030.03;5050462;28;20025;-47
2023/06/20 05:28:19;;;;;;;14.95;9.05;;;;;;;20.55;100.00;101028.59;5050427;28;20089;-48
2023/06/20 05:30:44;;;;;;;19.05;8.60;;;;;;;20.63;100.00;101029.28;5048674;28;20217;-48
2023/06/20 05:33:09;;;;;;;17.35;9.27;;;;;;;20.67;100.00;101022.25;5036428;28;20090;-48
2023/06/20 05:35:35;;;;;;;13.05;8.55;;;;;;;20.68;100.00;101013.81;5038199;28;20378;-45
2023/06/20 05:38:00;;;;;;;16.13;9.70;;;;;;;20.72;100.00;101009.50;5030152;28;20495;-48
2023/06/20 05:40:26;;;;;;;15.70;9.27;;;;;;;20.79;100.00;101009.34;5028506;28;20044;-47
2023/06/20 05:42:51;;;;;;;16.10;9.05;;;;;;;20.80;100.00;101005.53;5032662;28;20105;-47
2023/06/20 05:45:18;;;;;;;12.82;8.77;;;;;;;20.87;100.00;100999.91;5049138;28;20075;-47
2023/06/20 05:47:46;;;;;;;15.30;8.90;;;;;;;20.94;100.00;101003.34;5037248;28;20140;-45
2023/06/20 05:50:11;;;;;;;14.27;8.93;;;;;;;20.95;100.00;101000.31;5033614;28;20061;-47
2023/06/20 05:52:36;;;;;;;14.27;9.60;;;;;;;20.99;100.00;101011.63;5033582;28;20053;-50
2023/06/20 05:55:03;;;;;;;14.77;8.93;;;;;;;21.06;100.00;101004.06;5046736;28;20037;-49
2023/06/20 05:57:28;;;;;;;15.52;8.52;;;;;;;21.10;100.00;100998.94;5047547;28;20067;-49
2023/06/20 05:59:53;;;;;;;15.15;9.20;;;;;;;21.19;100.00;101006.47;5034991;28;20029;-51
2023/06/20 06:02:21;;;;;;;17.73;8.90;;;;;;;21.30;100.00;101001.16;5034549;28;20029;-50
2023/06/20 06:04:47;;;;;;;17.65;8.98;;;;;;;21.39;100.00;101005.19;5034940;28;20105;-49
2023/06/20 06:07:12;;;;;;;15.95;8.77;;;;;;;21.43;100.00;101007.19;5034849;28;20030;-49
2023/06/20 06:09:38;;;;;;;17.77;8.88;;;;;;;21.52;100.00;101010.31;5034453;28;20040;-47
2023/06/20 06:12:03;;;;;;;17.80;9.85;;;;;;;21.65;100.00;101014.63;5033167;28;20057;-47
2023/06/20 06:14:29;;;;;;;16.70;9.18;;;;;;;21.57;100.00;101002.19;5034504;28;20021;-50
2023/06/20 06:16:55;;;;;;;12.32;8.80;;;;;;;21.58;100.00;101012.06;5034058;28;20056;-48
2023/06/20 06:19:20;;;;;;;17.15;9.27;;;;;;;21.58;100.00;101008.50;5033747;28;20159;-49
2023/06/20 06:21:47;;;;;;;15.68;8.73;;;;;;;21.60;100.00;101012.63;5033699;28;20053;-49
2023/06/20 06:24:13;;;;;;;12.88;8.15;;;;;;;21.62;100.00;101012.41;5016734;28;20084;-47
2023/06/20 06:26:38;;;;;;;12.32;8.35;;;;;;;21.75;100.00;101003.81;5033669;28;20026;-47
2023/06/20 06:29:06;;;;;;;11.43;8.90;;;;;;;21.76;100.00;100991.78;5031978;28;20103;-47
2023/06/20 06:31:33;;;;;;;13.60;9.60;;;;;;;21.89;100.00;100993.31;5040681;28;20033;-48
2023/06/20 06:34:00;;;;;;;13.03;8.70;;;;;;;21.88;100.00;100991.63;5037007;28;20053;-46
2023/06/20 06:36:26;;;;;;;12.13;8.98;;;;;;;21.92;100.00;100981.84;5033007;28;20048;-48
2023/06/20 06:38:51;;;;;;;15.88;9.63;;;;;;;21.87;100.00;100981.78;5034078;28;20039;-48
2023/06/20 06:41:19;;;;;;;14.93;9.82;;;;;;;22.20;100.00;100988.25;5033765;28;20029;-47
2023/06/20 06:43:45;;;;;;;21.33;10.00;;;;;;;22.25;100.00;100982.81;5033559;28;20025;-48
2023/06/20 06:46:10;;;;;;;15.48;10.60;;;;;;;22.18;100.00;100984.91;5032147;28;20025;-49
2023/06/20 06:48:36;;;;;;;17.70;10.10;;;;;;;22.22;100.00;100986.06;5033376;28;20091;-47
2023/06/20 06:51:02;;;;;;;14.75;10.13;;;;;;;22.29;100.00;100973.81;5041413;28;20499;-47
2023/06/20 06:53:28;;;;;;;14.60;10.10;;;;;;;22.25;100.00;100969.09;5053411;28;20098;-48
2023/06/20 06:55:53;;;;;;;13.80;10.13;;;;;;;22.35;100.00;100966.47;5053513;28;20136;-48
2023/06/20 06:58:18;;;;;;;13.02;9.70;;;;;;;22.72;100.00;100946.56;5053266;28;20039;-49
2023/06/20 07:00:44;;;;;;;17.92;11.20;;;;;;;23.07;100.00;100958.97;5034467;28;20025;-50
2023/06/20 07:03:10;;;;;;;14.07;10.00;;;;;;;23.43;100.00;100947.16;5052085;28;20051;-48
2023/06/20 07:05:36;;;;;;;18.30;10.75;;;;;;;23.86;100.00;100945.22;5051563;28;20033;-48
2023/06/20 07:08:03;;;;;;;12.77;10.48;;;;;;;24.42;100.00;100939.06;5053368;28;20403;-49
2023/06/20 07:10:28;;;;;;;18.98;10.80;;;;;;;24.58;100.00;100953.69;5051547;28;20111;-50
2023/06/20 07:12:53;;;;;;;13.45;10.15;;;;;;;24.77;100.00;100955.91;5051507;28;20556;-47
2023/06/20 07:15:19;;;;;;;15.30;10.65;;;;;;;24.67;100.00;100965.81;5052698;28;20032;-47
2023/06/20 07:17:44;;;;;;;16.10;9.82;;;;;;;24.74;100.00;100955.34;5052821;28;20049;-47
2023/06/20 07:20:11;;;;;;;14.80;9.18;;;;;;;25.62;100.00;100962.47;5035025;28;20072;-49
2023/06/20 07:22:37;;;;;;;14.60;10.18;;;;;;;26.16;96.70;100962.84;5051742;28;20021;-48
2023/06/20 07:25:03;;;;;;;15.43;10.20;;;;;;;27.28;92.24;100970.38;5052065;28;20016;-47
2023/06/20 07:27:29;;;;;;;17.52;10.77;;;;;;;28.39;86.58;100968.53;5053295;28;20399;-47
2023/06/20 07:29:54;;;;;;;13.98;10.68;;;;;;;28.19;86.48;100964.91;5053218;28;20490;-48
2023/06/20 07:32:19;;;;;;;14.30;10.05;;;;;;;27.94;87.64;100966.09;5053188;28;20347;-46
2023/06/20 07:34:45;;;;;;;12.52;10.02;;;;;;;27.27;89.48;100965.94;5051428;28;20029;-49
2023/06/20 07:37:10;;;;;;;15.48;10.77;;;;;;;26.06;93.45;100974.75;5053193;28;20021;-47
2023/06/20 07:39:40;;;;;;;14.95;11.02;;;;;;;25.99;94.56;100975.06;5051553;28;20079;-47
2023/06/20 07:42:05;;;;;;;22.45;11.57;;;;;;;26.47;93.73;100972.59;5053343;28;20032;-48
2023/06/20 07:44:31;;;;;;;17.02;11.60;;;;;;;26.93;91.97;100977.81;5053557;28;20030;-47
2023/06/20 07:46:56;;;;;;;16.63;12.23;;;;;;;26.81;91.55;100971.84;5052534;28;20498;-48
2023/06/20 07:49:21;;;;;;;12.38;10.80;;;;;;;28.02;88.63;100972.91;5050713;28;20429;-48
2023/06/20 07:51:47;;;;;;;16.48;10.63;;;;;;;28.21;87.82;100973.75;5050806;28;20041;-48
2023/06/20 07:54:14;;;;;;;12.55;9.63;;;;;;;28.74;86.59;100969.16;5052257;28;20506;-47
2023/06/20 07:56:39;;;;;;;16.00;10.55;;;;;;;28.99;84.54;100970.66;5050731;28;20052;-47
2023/06/20 07:59:05;;;;;;;13.05;10.80;;;;;;;28.16;85.96;100965.53;5051615;28;20510;-48
2023/06/20 08:01:31;;;;;;;11.68;10.18;;;;;;;29.18;84.05;100976.22;5052330;28;20110;-49
2023/06/20 08:03:56;;;;;;;13.67;9.23;;;;;;;30.37;80.34;100971.66;5050808;28;20029;-49
2023/06/20 08:06:22;;;;;;;14.90;10.53;;;;;;;30.88;77.30;100977.16;5050229;28;20376;-53
2023/06/20 08:08:47;;;;;;;14.50;10.30;;;;;;;31.19;76.83;100982.78;5050870;28;20043;-49
2023/06/20 08:11:12;;;;;;;17.63;11.33;;;;;;;30.23;77.67;100986.66;5051243;28;20321;-47
2023/06/20 08:13:38;;;;;;;14.23;10.33;;;;;;;30.30;77.46;100974.03;5052095;28;20052;-49
2023/06/20 08:16:03;;;;;;;10.73;8.63;;;;;;;30.93;76.68;100977.03;5052447;28;20028;-50
2023/06/20 08:18:29;;;;;;;14.83;11.53;;;;;;;31.77;72.72;100972.59;5052051;28;20053;-47
2023/06/20 08:20:54;;;;;;;25.90;11.90;;;;;;;31.10;73.91;100976.31;5052238;28;20052;-48
2023/06/20 08:23:26;;;;;;;13.30;9.20;;;;;;;32.11;71.87;100975.50;5051899;28;20053;-47
2023/06/20 08:25:55;;;;;;;12.95;10.30;;;;;;;32.77;67.91;100964.25;5052039;28;20436;-48
2023/06/20 08:28:24;;;;;;;14.95;8.90;;;;;;;32.70;70.24;100961.19;5052091;28;20028;-48
2023/06/20 08:30:50;;;;;;;12.57;10.15;;;;;;;31.97;69.87;100955.34;5051341;28;20028;-47
2023/06/20 08:33:15;;;;;;;20.30;10.67;;;;;;;32.45;69.33;100960.00;5050807;28;20112;-46
2023/06/20 08:35:41;;;;;;;13.23;8.27;;;;;;;31.71;70.47;100953.28;5051525;28;20267;-46
2023/06/20 08:38:06;;;;;;;11.60;8.20;;;;;;;31.69;70.35;100955.53;5033380;28;20471;-47
2023/06/20 08:40:33;;;;;;;11.00;8.63;;;;;;;31.55;71.36;100957.63;5051836;28;20037;-47
2023/06/20 08:42:59;;;;;;;11.73;8.32;;;;;;;31.17;73.00;100949.72;5049815;28;20029;-46
2023/06/20 08:45:24;;;;;;;12.57;9.23;;;;;;;32.06;68.77;100952.56;5050002;28;20118;-48
2023/06/20 08:47:49;;;;;;;15.13;9.67;;;;;;;32.31;69.60;100948.19;5049943;28;20029;-48
2023/06/20 08:50:15;;;;;;;20.67;9.40;;;;;;;32.65;68.90;100941.84;5051244;28;20033;-47
2023/06/20 08:52:47;;;;;;;12.83;9.60;;;;;;;32.54;67.71;100943.28;5051040;28;20025;-49
2023/06/20 08:55:14;;;;;;;15.77;10.07;;;;;;;31.58;69.22;100950.59;5051266;28;20056;-48
2023/06/20 08:57:40;;;;;;;13.50;8.68;;;;;;;31.42;71.17;100945.47;5051039;28;20048;-48
2023/06/20 09:00:07;;;;;;;17.93;8.80;;;;;;;31.76;71.63;100941.19;5050955;28;20025;-47
2023/06/20 09:02:34;;;;;;;12.57;8.63;;;;;;;31.67;70.49;100937.53;5049573;28;20099;-47
2023/06/20 09:05:01;;;;;;;13.93;8.23;;;;;;;32.13;69.15;100939.81;5051501;28;20024;-48
2023/06/20 09:07:33;;;;;;;10.40;8.27;;;;;;;32.25;69.10;100944.72;5051464;28;20113;-47
2023/06/20 09:10:00;;;;;;;19.15;9.10;;;;;;;31.53;70.94;100934.06;5052439;28;20044;-47
2023/06/20 09:12:25;;;;;;;8.43;6.80;;;;;;;32.49;69.03;100941.53;5051177;28;20064;-49
2023/06/20 09:14:52;;;;;;;13.67;7.80;;;;;;;32.24;66.34;100933.94;5051156;28;20067;-48
2023/06/20 09:17:19;;;;;;;10.25;7.82;;;;;;;32.05;68.56;100939.81;5032901;28;20527;-48
2023/06/20 09:19:45;;;;;;;10.20;7.35;;;;;;;31.97;69.84;100933.06;5049538;28;20032;-48
2023/06/20 09:22:14;;;;;;;10.63;5.60;;;;;;;32.31;67.26;100931.50;5032644;28;20053;-51
2023/06/20 09:24:44;;;;;;;12.13;5.75;;;;;;;32.69;66.28;100933.63;5049184;28;20489;-47
2023/06/20 09:27:10;;;;;;;7.85;5.45;;;;;;;31.80;66.35;100933.00;5048963;28;20025;-50
2023/06/20 09:30:00;;;;;;;9.13;5.07;;;;;;;30.53;70.35;100936.00;5049309;28;20025;-47
2023/06/20 09:32:25;;;;;;;6.93;5.53;;;;;;;31.32;69.85;100936.56;5049264;28;20466;-47
2023/06/20 09:34:51;;;;;;;9.57;5.10;;;;;;;32.49;67.03;100938.72;5049155;28;20021;-47
2023/06/20 09:37:17;;;;;;;9.70;5.43;;;;;;;32.37;65.41;100930.16;5050750;28;20029;-47
2023/06/20 09:39:43;;;;;;;7.10;5.30;;;;;;;32.42;64.91;100938.38;5049227;28;20491;-47
2023/06/20 09:42:14;;;;;;;12.87;5.40;;;;;;;31.66;66.61;100933.13;5050410;28;20376;-47
2023/06/20 09:44:40;;;;;;;9.90;5.63;;;;;;;31.88;65.06;100940.53;5049052;28;20532;-48
2023/06/20 09:47:07;;;;;;;13.32;5.90;;;;;;;31.25;67.31;100942.56;5050301;28;20033;-50
2023/06/20 09:49:39;;;;;;;7.93;5.70;;;;;;;30.70;70.08;100923.38;5049147;28;20040;-49
2023/06/20 09:52:07;;;;;;;8.07;5.63;;;;;;;31.19;70.80;100927.16;5050395;28;20021;-48
2023/06/20 09:55:00;;;;;;;10.23;6.05;;;;;;;31.12;70.50;100921.22;5049106;28;20029;-48
2023/06/20 09:57:35;;;;;;;10.85;6.63;;;;;;;31.03;70.16;100916.44;5049056;28;20053;-50
2023/06/20 10:00:03;;;;;;;7.88;6.38;;;;;;;31.59;69.20;100925.22;5049311;28;20094;-47
2023/06/20 10:02:28;;;;;;;12.25;6.35;;;;;;;31.89;67.99;100925.50;5050354;28;20029;-47
2023/06/20 10:04:54;;;;;;;8.57;5.40;;;;;;;32.50;67.37;100912.50;5049121;28;20040;-48
2023/06/20 10:07:21;;;;;;;7.25;6.55;;;;;;;32.68;64.98;100920.84;5032220;28;20029;-48
2023/06/20 10:09:48;;;;;;;10.48;6.35;;;;;;;32.83;64.47;100919.50;5050036;28;20098;-47
2023/06/20 10:12:14;;;;;;;;;;;;;;;32.47;66.41;100909.53;5032606;28;20127;-48
2023/06/20 10:14:41;;;;;;;7.07;5.38;;;;;;;33.23;66.69;100911.72;5048951;28;19919;-48
2023/06/20 10:17:08;;;;;;;9.52;6.35;;;;;;;33.28;63.56;100907.91;5050387;28;20026;-49
2023/06/20 10:19:47;;;;;;;6.45;5.00;;;;;;;33.40;62.32;100900.47;5050469;28;20068;-48
2023/06/20 10:22:13;;;;;;;8.80;5.57;;;;;;;33.11;63.25;100892.06;5048516;28;20035;-48
2023/06/20 10:24:40;;;;;;;7.93;5.30;;;;;;;33.30;63.23;100894.47;5050088;28;20021;-52
2023/06/20 10:27:05;;;;;;;9.60;5.20;;;;;;;33.27;63.82;100889.56;5048719;28;20025;-48
2023/06/20 10:29:39;;;;;;;11.23;5.33;;;;;;;33.19;62.43;100892.03;5050279;28;20091;-48
2023/06/20 10:32:05;;;;;;;9.00;5.35;;;;;;;33.49;62.06;100888.47;5050439;28;20048;-46
2023/06/20 10:34:41;;;;;;;8.43;4.60;;;;;;;33.58;62.17;100883.69;5049261;28;20072;-50
2023/06/20 10:37:16;;;;;;;7.57;5.00;;;;;;;32.44;64.41;100883.16;5054633;28;20052;-49
2023/06/20 10:39:58;;;;;;;7.50;4.82;;;;;;;33.17;62.88;100869.22;5053781;28;20291;-49
2023/06/20 10:42:39;;;;;;;6.55;4.53;;;;;;;33.76;60.78;100871.28;5052386;28;20032;-47
2023/06/20 10:45:27;;;;;;;6.75;4.38;;;;;;;34.18;60.35;100873.28;5035692;28;20024;-50
2023/06/20 10:47:53;;;;;;;9.93;5.13;;;;;;;34.26;59.98;100867.63;5053397;28;20029;-51
2023/06/20 10:50:19;;;;;;;;;;;;;;;34.17;57.82;100858.50;5054204;28;20048;-48
2023/06/20 10:52:44;;;;;;;5.95;4.60;;;;;;;34.53;58.57;100851.44;5053417;28;19909;-51
2023/06/20 10:55:14;;;;;;;6.50;4.40;;;;;;;33.40;58.84;100861.44;5053408;28;20071;-48
2023/06/20 10:57:44;;;;;;;8.68;5.20;;;;;;;32.95;60.54;100853.56;5053130;28;20057;-50
2023/06/20 11:00:14;;;;;;;5.43;4.57;;;;;;;33.10;61.17;100854.16;5053281;28;20032;-48
2023/06/20 11:02:40;;;;;;;6.18;4.97;;;;;;;32.41;62.94;100855.94;5053600;28;20029;-48
2023/06/20 11:05:06;;;;;;;6.43;5.23;;;;;;;31.89;65.16;100845.59;5052065;28;20120;-46
2023/06/20 11:07:32;;;;;;;12.40;5.78;;;;;;;31.92;65.28;100846.91;5035243;28;20363;-48
2023/06/20 11:09:57;;;;;;;6.13;5.53;;;;;;;31.82;66.26;100842.47;5053523;28;20129;-51
2023/06/20 11:12:22;;;;;;;12.90;5.50;;;;;;;31.55;68.34;100838.00;5052314;28;20083;-47